createdAt,value
2018-10-16T00:00:40.400Z,22.93
2018-10-16T00:03:07.873Z,23.10
2018-10-16T00:05:35.424Z,21.83
2018-10-16T00:08:02.826Z,21.60
2018-10-16T00:10:35.685Z,21.53
2018-10-16T00:13:03.135Z,21.07
2018-10-16T00:15:30.531Z,18.73
2018-10-16T00:17:57.965Z,16.77
2018-10-16T00:20:25.374Z,17.83
2018-10-16T00:22:52.798Z,24.10
2018-10-16T00:25:20.242Z,25.53
2018-10-16T00:27:47.662Z,17.13
2018-10-16T00:30:15.421Z,20.50
2018-10-16T00:32:42.913Z,19.73
2018-10-16T00:35:10.860Z,27.93
2018-10-16T00:37:38.725Z,22.10
2018-10-16T00:40:06.324Z,22.93
2018-10-16T00:42:33.850Z,20.50
2018-10-16T00:45:01.355Z,30.30
2018-10-16T00:47:28.811Z,20.40
2018-10-16T00:49:56.223Z,28.37
2018-10-16T00:52:23.814Z,20.70
2018-10-16T00:54:51.288Z,20.60
2018-10-16T00:57:18.672Z,18.57
2018-10-16T00:59:46.068Z,19.33
2018-10-16T01:02:13.588Z,21.03
2018-10-16T01:04:41.044Z,28.47
2018-10-16T01:07:08.466Z,20.47
2018-10-16T01:09:35.913Z,23.53
2018-10-16T01:12:03.387Z,19.10
2018-10-16T01:14:30.789Z,16.27
2018-10-16T01:16:58.229Z,18.43
2018-10-16T01:19:25.630Z,16.50
2018-10-16T01:21:53.050Z,18.33
2018-10-16T01:24:20.542Z,16.17
2018-10-16T01:26:47.965Z,25.37
2018-10-16T01:29:15.376Z,15.30
2018-10-16T01:31:42.830Z,16.27
2018-10-16T01:34:10.321Z,21.33
2018-10-16T01:36:37.791Z,14.87
2018-10-16T01:39:06.318Z,26.00
2018-10-16T01:41:33.722Z,14.63
2018-10-16T01:44:01.110Z,19.57
2018-10-16T01:46:28.572Z,16.17
2018-10-16T01:48:55.962Z,16.30
2018-10-16T01:51:23.351Z,19.30
2018-10-16T01:53:50.784Z,16.33
2018-10-16T01:56:18.186Z,18.63
2018-10-16T01:58:45.662Z,16.63
2018-10-16T02:01:13.094Z,15.37
2018-10-16T02:03:40.503Z,17.53
2018-10-16T02:06:07.902Z,19.97
2018-10-16T02:08:35.379Z,18.87
2018-10-16T02:11:02.778Z,18.90
2018-10-16T02:13:30.166Z,18.33
2018-10-16T02:15:57.574Z,18.87
2018-10-16T02:18:25.171Z,24.73
2018-10-16T02:20:52.553Z,19.53
2018-10-16T02:23:19.982Z,23.47
2018-10-16T02:25:47.386Z,20.23
2018-10-16T02:28:14.807Z,18.77
2018-10-16T02:30:42.255Z,23.23
2018-10-16T02:33:09.654Z,17.57
2018-10-16T02:35:37.066Z,20.97
2018-10-16T02:38:04.736Z,23.27
2018-10-16T02:40:32.130Z,20.23
2018-10-16T02:42:59.627Z,29.07
2018-10-16T02:45:27.058Z,19.63
2018-10-16T02:47:54.466Z,22.30
2018-10-16T02:50:21.875Z,25.17
2018-10-16T02:52:49.529Z,22.53
2018-10-16T02:55:16.938Z,25.23
2018-10-16T02:57:44.331Z,22.00
2018-10-16T03:00:11.854Z,22.00
2018-10-16T03:02:39.255Z,29.37
2018-10-16T03:05:06.882Z,30.37
2018-10-16T03:07:34.362Z,21.77
2018-10-16T03:10:01.755Z,33.27
2018-10-16T03:12:29.131Z,19.40
2018-10-16T03:14:56.557Z,18.20
2018-10-16T03:17:23.950Z,18.93
2018-10-16T03:19:51.391Z,22.87
2018-10-16T03:22:18.835Z,26.00
2018-10-16T03:24:46.226Z,21.00
2018-10-16T03:27:13.618Z,17.60
2018-10-16T03:29:41.030Z,20.90
2018-10-16T03:32:08.454Z,18.97
2018-10-16T03:34:35.988Z,19.50
2018-10-16T03:37:03.410Z,16.83
2018-10-16T03:39:30.808Z,18.37
2018-10-16T03:41:58.246Z,20.67
2018-10-16T03:44:25.671Z,22.23
2018-10-16T03:46:53.206Z,16.33
2018-10-16T03:49:20.600Z,16.23
2018-10-16T03:51:48.014Z,19.03
2018-10-16T03:54:15.418Z,20.87
2018-10-16T03:56:42.819Z,20.33
2018-10-16T03:59:10.376Z,14.57
2018-10-16T04:01:37.783Z,18.40
2018-10-16T04:04:05.225Z,24.83
2018-10-16T04:06:32.714Z,22.50
2018-10-16T04:09:00.054Z,19.87
2018-10-16T04:11:27.454Z,24.53
2018-10-16T04:13:54.966Z,16.57
2018-10-16T04:16:22.338Z,18.93
2018-10-16T04:18:49.732Z,19.80
2018-10-16T04:21:17.281Z,16.57
2018-10-16T04:23:44.659Z,16.37
2018-10-16T04:26:12.768Z,16.87
2018-10-16T04:28:40.218Z,17.20
2018-10-16T04:31:08.658Z,19.83
2018-10-16T04:33:36.071Z,15.47
2018-10-16T04:36:03.506Z,18.43
2018-10-16T04:38:31.021Z,17.43
2018-10-16T04:40:58.486Z,18.03
2018-10-16T04:43:25.909Z,18.23
2018-10-16T04:45:53.598Z,21.13
2018-10-16T04:48:21.266Z,21.50
2018-10-16T04:50:48.678Z,18.17
2018-10-16T04:53:16.159Z,19.47
2018-10-16T04:55:43.567Z,18.70
2018-10-16T04:58:11.007Z,16.80
2018-10-16T05:00:38.397Z,21.70
2018-10-16T05:03:06.096Z,15.37
2018-10-16T05:05:33.530Z,23.80
2018-10-16T05:08:01.038Z,18.10
2018-10-16T05:10:28.554Z,18.97
2018-10-16T05:12:56.043Z,19.73
2018-10-16T05:15:31.928Z,16.83
2018-10-16T05:17:59.359Z,15.27
2018-10-16T05:20:26.959Z,31.00
2018-10-16T05:22:55.020Z,17.97
2018-10-16T05:25:22.934Z,20.93
2018-10-16T05:27:50.333Z,20.67
2018-10-16T05:30:17.871Z,22.40
2018-10-16T05:32:45.305Z,23.80
2018-10-16T05:35:12.755Z,26.73
2018-10-16T05:37:40.780Z,28.60
2018-10-16T05:40:08.888Z,21.87
2018-10-16T05:42:36.618Z,25.60
2018-10-16T05:45:04.098Z,34.63
2018-10-16T05:47:31.738Z,25.53
2018-10-16T05:49:59.150Z,21.87
2018-10-16T05:52:26.579Z,27.17
2018-10-16T05:54:54.077Z,27.37
2018-10-16T05:57:21.610Z,27.33
2018-10-16T05:59:49.174Z,34.43
2018-10-16T06:02:16.702Z,19.40
2018-10-16T06:04:44.069Z,38.77
2018-10-16T06:07:11.963Z,23.57
2018-10-16T06:09:39.976Z,22.63
2018-10-16T06:12:07.438Z,18.93
2018-10-16T06:14:34.917Z,19.47
2018-10-16T06:17:02.321Z,21.13
2018-10-16T06:19:29.681Z,23.63
2018-10-16T06:21:57.043Z,20.47
2018-10-16T06:24:24.971Z,19.93
2018-10-16T06:26:52.513Z,18.47
2018-10-16T06:29:20.103Z,23.20
2018-10-16T06:31:48.108Z,20.57
2018-10-16T06:34:16.853Z,22.57
2018-10-16T06:36:44.802Z,20.63
2018-10-16T06:39:12.714Z,17.83
2018-10-16T06:41:40.622Z,22.50
2018-10-16T06:44:09.081Z,18.57
2018-10-16T06:46:37.235Z,19.23
2018-10-16T06:49:05.080Z,21.50
2018-10-16T06:51:33.016Z,18.30
2018-10-16T06:54:01.494Z,18.67
2018-10-16T06:56:29.889Z,20.43
2018-10-16T06:58:58.036Z,16.60
2018-10-16T07:01:26.033Z,20.57
2018-10-16T07:03:54.198Z,15.30
2018-10-16T07:06:22.150Z,15.57
2018-10-16T07:08:50.593Z,23.03
2018-10-16T07:11:18.644Z,16.90
2018-10-16T07:13:47.623Z,17.20
2018-10-16T07:16:16.187Z,25.53
2018-10-16T07:18:44.330Z,20.00
2018-10-16T07:21:12.711Z,21.57
2018-10-16T07:23:40.805Z,26.93
2018-10-16T07:26:09.264Z,20.80
2018-10-16T07:28:37.123Z,16.97
2018-10-16T07:31:05.469Z,19.73
2018-10-16T07:33:33.258Z,18.93
2018-10-16T07:36:01.267Z,19.10
2018-10-16T07:38:29.537Z,17.90
2018-10-16T07:40:57.545Z,19.37
2018-10-16T07:43:25.487Z,18.30
2018-10-16T07:45:53.397Z,20.93
2018-10-16T07:48:21.699Z,22.13
2018-10-16T07:50:49.904Z,20.30
2018-10-16T07:53:18.236Z,17.03
2018-10-16T07:55:46.235Z,21.30
2018-10-16T07:58:14.060Z,17.63
2018-10-16T08:00:42.211Z,18.07
2018-10-16T08:03:13.267Z,15.57
2018-10-16T08:05:48.240Z,14.67
2018-10-16T08:08:25.657Z,20.00
2018-10-16T08:11:06.888Z,21.97
2018-10-16T08:13:38.047Z,14.40
2018-10-16T08:16:10.083Z,21.17
2018-10-16T08:18:41.283Z,15.33
2018-10-16T08:21:22.048Z,13.77
2018-10-16T08:23:52.761Z,14.90
2018-10-16T08:26:25.332Z,17.33
2018-10-16T08:28:54.724Z,18.53
2018-10-16T08:31:27.991Z,21.67
2018-10-16T08:34:02.912Z,18.10
2018-10-16T08:36:35.648Z,18.13
2018-10-16T08:39:19.642Z,16.03
2018-10-16T08:44:10.171Z,16.33
2018-10-16T08:46:52.927Z,15.53
2018-10-16T08:49:32.049Z,20.20
2018-10-16T08:52:09.721Z,12.43
2018-10-16T08:54:51.082Z,22.83
2018-10-16T09:03:45.468Z,21.60
2018-10-16T09:08:59.671Z,17.27
2018-10-16T09:11:27.085Z,13.73
2018-10-16T09:13:54.513Z,22.37
2018-10-16T09:16:22.465Z,15.80
2018-10-16T09:18:50.003Z,19.47
2018-10-16T09:21:18.057Z,12.40
2018-10-16T09:24:05.434Z,16.43
2018-10-16T09:34:11.323Z,16.33
2018-10-16T09:36:52.009Z,14.43
2018-10-16T09:39:49.867Z,18.67
2018-10-16T09:45:32.936Z,19.87
2018-10-16T09:48:15.365Z,20.23
2018-10-16T09:51:17.878Z,14.23
2018-10-16T09:53:57.196Z,18.57
2018-10-16T09:56:27.505Z,13.23
2018-10-16T09:59:12.981Z,12.67
2018-10-16T10:01:57.807Z,16.23
2018-10-16T10:04:42.907Z,12.73
2018-10-16T10:08:27.707Z,15.33
2018-10-16T10:10:56.343Z,14.07
2018-10-16T10:13:23.729Z,11.90
2018-10-16T10:15:51.192Z,10.97
2018-10-16T10:18:18.581Z,13.70
2018-10-16T10:20:45.937Z,19.40
2018-10-16T10:23:13.325Z,14.07
2018-10-16T10:25:40.745Z,14.73
2018-10-16T10:28:08.113Z,13.07
2018-10-16T10:30:35.474Z,14.70
2018-10-16T10:33:02.922Z,19.00
2018-10-16T10:35:30.471Z,20.30
2018-10-16T10:37:57.909Z,20.53
2018-10-16T10:40:25.284Z,17.17
2018-10-16T10:42:52.735Z,11.63
2018-10-16T10:45:20.177Z,14.47
2018-10-16T10:47:47.708Z,20.20
2018-10-16T10:50:15.223Z,19.47
2018-10-16T10:52:42.512Z,18.40
2018-10-16T10:55:10.312Z,16.37
2018-10-16T10:57:38.165Z,15.90
2018-10-16T11:00:06.659Z,15.50
2018-10-16T11:02:34.315Z,17.17
2018-10-16T11:05:01.781Z,13.67
2018-10-16T11:07:29.193Z,13.50
2018-10-16T11:09:56.561Z,16.10
2018-10-16T11:12:23.933Z,19.17
2018-10-16T11:14:51.302Z,12.17
2018-10-16T11:17:18.712Z,14.90
2018-10-16T11:19:46.102Z,16.90
2018-10-16T11:22:13.580Z,18.07
2018-10-16T11:24:40.990Z,14.10
2018-10-16T11:27:08.502Z,16.77
2018-10-16T11:29:35.810Z,17.97
2018-10-16T11:32:03.511Z,14.60
2018-10-16T11:34:30.886Z,13.60
2018-10-16T11:36:58.306Z,15.97
2018-10-16T11:39:25.746Z,14.80
2018-10-16T11:41:53.137Z,13.10
2018-10-16T11:44:20.508Z,23.10
2018-10-16T11:46:47.894Z,17.63
2018-10-16T11:49:15.286Z,13.30
2018-10-16T11:51:42.645Z,13.13
2018-10-16T11:54:10.097Z,18.33
2018-10-16T11:56:38.015Z,13.90
2018-10-16T11:59:05.445Z,19.60
2018-10-16T12:01:32.885Z,13.90
2018-10-16T12:04:00.334Z,19.43
2018-10-16T12:06:27.696Z,14.13
2018-10-16T12:08:55.149Z,17.17
2018-10-16T12:11:22.561Z,15.53
2018-10-16T12:13:50.058Z,14.67
2018-10-16T12:16:18.748Z,11.50
2018-10-16T12:18:51.156Z,11.50
2018-10-16T12:21:20.155Z,15.83
2018-10-16T12:23:47.745Z,22.03
2018-10-16T12:26:15.545Z,15.40
2018-10-16T12:28:43.003Z,18.33
2018-10-16T12:31:10.477Z,13.13
2018-10-16T12:33:38.117Z,11.55
2018-10-16T12:36:05.661Z,11.90
2018-10-16T12:38:33.047Z,11.10
2018-10-16T12:41:00.461Z,12.30
2018-10-16T12:43:27.941Z,13.33
2018-10-16T12:45:56.046Z,13.10
2018-10-16T12:48:23.570Z,13.37
2018-10-16T12:50:50.964Z,15.63
2018-10-16T12:53:18.332Z,12.28
2018-10-16T12:55:45.705Z,10.18
2018-10-16T12:58:13.436Z,16.62
2018-10-16T13:00:40.801Z,17.57
2018-10-16T13:03:08.164Z,15.18
2018-10-16T13:05:35.563Z,9.63
2018-10-16T13:08:02.931Z,10.23
2018-10-16T13:10:30.301Z,12.23
2018-10-16T13:12:57.790Z,14.83
2018-10-16T13:15:25.345Z,9.08
2018-10-16T13:17:52.689Z,7.80
2018-10-16T13:20:20.309Z,14.25
2018-10-16T13:22:48.863Z,10.93
2018-10-16T13:25:16.517Z,12.68
2018-10-16T13:27:44.146Z,7.67
2018-10-16T13:30:13.313Z,14.20
2018-10-16T13:32:40.687Z,15.35
2018-10-16T13:35:08.989Z,11.80
2018-10-16T13:37:36.439Z,9.03
2018-10-16T13:40:04.124Z,12.20
2018-10-16T13:42:31.491Z,12.10
2018-10-16T13:44:58.897Z,15.65
2018-10-16T13:47:26.351Z,26.82
2018-10-16T13:49:53.785Z,10.90
2018-10-16T13:52:21.185Z,19.98
2018-10-16T13:54:48.525Z,11.70
2018-10-16T13:57:15.954Z,13.40
2018-10-16T13:59:43.300Z,14.73
2018-10-16T14:02:10.743Z,15.90
2018-10-16T14:04:38.228Z,9.10
2018-10-16T14:07:05.849Z,14.50
2018-10-16T14:09:33.212Z,12.73
2018-10-16T14:12:00.620Z,11.57
2018-10-16T14:14:28.388Z,11.78
2018-10-16T14:16:55.726Z,11.88
2018-10-16T14:19:23.089Z,8.38
2018-10-16T14:21:50.622Z,11.90
2018-10-16T14:24:17.969Z,11.33
2018-10-16T14:26:45.541Z,14.70
2018-10-16T14:29:12.912Z,12.03
2018-10-16T14:31:40.245Z,13.87
2018-10-16T14:34:08.030Z,10.07
2018-10-16T14:36:35.705Z,12.77
2018-10-16T14:39:05.207Z,11.43
2018-10-16T14:41:33.035Z,10.83
2018-10-16T14:44:00.566Z,12.03
2018-10-16T14:46:28.241Z,9.47
2018-10-16T14:48:55.617Z,10.83
2018-10-16T14:51:22.961Z,8.77
2018-10-16T14:53:50.416Z,11.90
2018-10-16T14:56:17.804Z,14.20
2018-10-16T14:58:45.145Z,11.20
2018-10-16T15:01:12.521Z,8.33
2018-10-16T15:03:39.896Z,15.50
2018-10-16T15:06:07.265Z,10.07
2018-10-16T15:08:34.629Z,12.77
2018-10-16T15:11:02.146Z,14.83
2018-10-16T15:13:29.542Z,11.27
2018-10-16T15:15:56.935Z,8.67
2018-10-16T15:18:24.286Z,10.67
2018-10-16T15:20:51.629Z,12.87
2018-10-16T15:23:18.976Z,13.10
2018-10-16T15:25:46.573Z,12.73
2018-10-16T15:28:14.028Z,11.73
2018-10-16T15:30:41.402Z,14.13
2018-10-16T15:33:08.807Z,14.23
2018-10-16T15:35:36.223Z,15.53
2018-10-16T15:38:03.825Z,14.80
2018-10-16T15:40:31.198Z,18.60
2018-10-16T15:42:58.587Z,22.80
2018-10-16T15:45:25.952Z,15.87
2018-10-16T15:47:53.355Z,21.17
2018-10-16T15:50:20.705Z,17.57
2018-10-16T15:52:48.159Z,15.57
2018-10-16T15:55:15.584Z,15.90
2018-10-16T15:57:43.083Z,11.77
2018-10-16T16:00:12.248Z,15.17
2018-10-16T16:02:39.606Z,11.57
2018-10-16T16:05:07.069Z,14.00
2018-10-16T16:07:34.417Z,18.60
2018-10-16T16:10:01.911Z,14.07
2018-10-16T16:12:29.498Z,15.40
2018-10-16T16:14:57.196Z,23.47
2018-10-16T16:17:24.727Z,23.63
2018-10-16T16:19:52.115Z,20.57
2018-10-16T16:22:19.501Z,24.03
2018-10-16T16:24:46.888Z,20.43
2018-10-16T16:27:14.276Z,29.20
2018-10-16T16:29:41.659Z,17.03
2018-10-16T16:32:09.185Z,19.63
2018-10-16T16:34:36.534Z,27.17
2018-10-16T16:37:04.022Z,32.87
2018-10-16T16:39:31.443Z,22.23
2018-10-16T16:41:58.889Z,19.57
2018-10-16T16:44:26.329Z,24.40
2018-10-16T16:46:53.922Z,31.93
2018-10-16T16:49:21.433Z,39.10
2018-10-16T16:51:48.808Z,24.90
2018-10-16T16:54:16.213Z,23.57
2018-10-16T16:56:43.669Z,26.83
2018-10-16T16:59:11.256Z,23.43
2018-10-16T17:01:38.663Z,18.80
2018-10-16T17:04:06.144Z,23.17
2018-10-16T17:06:33.749Z,22.93
2018-10-16T17:09:02.376Z,24.77
2018-10-16T17:11:31.041Z,18.03
2018-10-16T17:13:59.282Z,23.60
2018-10-16T17:16:28.027Z,35.40
2018-10-16T17:18:56.296Z,37.60
2018-10-16T17:21:23.742Z,37.33
2018-10-16T17:23:52.070Z,28.03
2018-10-16T17:26:19.803Z,35.43
2018-10-16T17:28:48.693Z,23.53
2018-10-16T17:31:16.385Z,22.93
2018-10-16T17:33:44.334Z,27.57
2018-10-16T17:36:11.990Z,24.13
2018-10-16T17:38:39.650Z,25.73
2018-10-16T17:41:07.100Z,34.67
2018-10-16T17:43:35.267Z,59.00
2018-10-16T17:46:03.583Z,63.23
2018-10-16T17:48:31.054Z,44.00
2018-10-16T17:50:58.579Z,32.13
2018-10-16T17:53:26.139Z,54.03
2018-10-16T17:55:53.596Z,39.20
2018-10-16T17:58:20.985Z,36.20
2018-10-16T18:00:48.417Z,35.37
2018-10-16T18:03:15.896Z,30.50
2018-10-16T18:05:43.245Z,31.75
2018-10-16T18:08:10.965Z,29.30
2018-10-16T18:10:38.397Z,25.40
2018-10-16T18:13:05.799Z,30.23
2018-10-16T18:15:33.220Z,25.83
2018-10-16T18:18:00.655Z,23.87
2018-10-16T18:20:28.162Z,27.67
2018-10-16T18:22:55.684Z,29.47
2018-10-16T18:25:23.105Z,32.03
2018-10-16T18:27:50.592Z,30.87
2018-10-16T18:30:18.008Z,31.50
2018-10-16T18:32:45.416Z,29.23
2018-10-16T18:35:12.885Z,35.10
2018-10-16T18:37:41.453Z,29.20
2018-10-16T18:40:09.734Z,27.87
2018-10-16T18:42:37.162Z,30.60
2018-10-16T18:45:05.029Z,27.80
2018-10-16T18:47:32.421Z,28.60
2018-10-16T18:49:59.781Z,35.53
2018-10-16T18:52:27.297Z,28.73
2018-10-16T18:54:54.724Z,37.17
2018-10-16T18:57:22.215Z,28.93
2018-10-16T18:59:49.685Z,45.40
2018-10-16T19:02:17.266Z,35.30
2018-10-16T19:04:44.602Z,26.73
2018-10-16T19:07:12.284Z,36.50
2018-10-16T19:09:39.838Z,34.97
2018-10-16T19:12:07.236Z,30.80
2018-10-16T19:14:34.693Z,28.93
2018-10-16T19:17:02.290Z,36.17
2018-10-16T19:19:29.735Z,29.40
2018-10-16T19:21:57.169Z,29.80
2018-10-16T19:24:24.690Z,34.67
2018-10-16T19:26:52.137Z,39.17
2018-10-16T19:29:19.845Z,34.73
2018-10-16T19:31:47.372Z,31.00
2018-10-16T19:34:14.781Z,33.33
2018-10-16T19:36:42.757Z,26.47
2018-10-16T19:39:11.369Z,30.53
2018-10-16T19:41:38.998Z,31.77
2018-10-16T19:44:06.501Z,35.43
2018-10-16T19:46:33.892Z,30.80
2018-10-16T19:49:01.514Z,27.20
2018-10-16T19:51:29.155Z,31.43
2018-10-16T19:53:56.584Z,31.67
2018-10-16T19:56:24.065Z,28.60
2018-10-16T19:58:51.566Z,36.43
2018-10-16T20:01:18.925Z,36.97
2018-10-16T20:03:46.306Z,37.93
2018-10-16T20:06:13.841Z,36.07
2018-10-16T20:08:41.436Z,39.07
2018-10-16T20:11:08.860Z,38.70
2018-10-16T20:13:36.274Z,33.80
2018-10-16T20:16:03.693Z,45.33
2018-10-16T20:18:31.102Z,44.10
2018-10-16T20:20:58.521Z,35.17
2018-10-16T20:23:25.910Z,36.87
2018-10-16T20:25:53.321Z,50.23
2018-10-16T20:28:20.845Z,50.77
2018-10-16T20:30:48.194Z,48.07
2018-10-16T20:33:15.766Z,46.47
2018-10-16T20:35:43.157Z,48.30
2018-10-16T20:38:10.550Z,41.43
2018-10-16T20:40:37.945Z,45.97
2018-10-16T20:43:05.679Z,39.67
2018-10-16T20:45:33.136Z,41.43
2018-10-16T20:48:00.521Z,37.27
2018-10-16T20:50:28.014Z,35.43
2018-10-16T20:52:55.441Z,67.07
2018-10-16T20:55:22.949Z,39.37
2018-10-16T20:57:50.350Z,36.43
2018-10-16T21:00:17.708Z,36.20
2018-10-16T21:02:45.073Z,34.87
2018-10-16T21:05:12.684Z,35.33
2018-10-16T21:07:39.939Z,30.73
2018-10-16T21:10:07.684Z,26.20
2018-10-16T21:12:35.081Z,26.73
2018-10-16T21:15:02.522Z,32.40
2018-10-16T21:17:29.908Z,24.73
2018-10-16T21:19:57.532Z,25.40
2018-10-16T21:22:24.913Z,32.57
2018-10-16T21:24:52.310Z,32.47
2018-10-16T21:27:19.706Z,21.83
2018-10-16T21:29:47.113Z,25.73
2018-10-16T21:32:14.493Z,24.30
2018-10-16T21:34:41.949Z,22.30
2018-10-16T21:37:09.466Z,30.93
2018-10-16T21:39:36.828Z,32.57
2018-10-16T21:42:04.273Z,37.73
2018-10-16T21:44:31.633Z,37.27
2018-10-16T21:46:59.097Z,29.47
2018-10-16T21:49:26.501Z,31.07
2018-10-16T21:51:53.962Z,45.73
2018-10-16T21:54:21.372Z,51.13
2018-10-16T21:56:48.801Z,39.70
2018-10-16T21:59:16.557Z,32.27
2018-10-16T22:01:49.077Z,31.50
2018-10-16T22:04:16.428Z,34.20
2018-10-16T22:06:43.948Z,31.77
2018-10-16T22:09:13.681Z,31.23
2018-10-16T22:11:41.068Z,24.13
2018-10-16T22:14:09.079Z,22.47
2018-10-16T22:16:36.572Z,22.73
2018-10-16T22:19:04.417Z,27.10
2018-10-16T22:21:31.823Z,22.17
2018-10-16T22:23:59.413Z,27.23
2018-10-16T22:26:26.766Z,21.17
2018-10-16T22:28:54.299Z,24.57
2018-10-16T22:31:21.720Z,21.07
2018-10-16T22:33:49.141Z,20.00
2018-10-16T22:36:16.621Z,22.10
2018-10-16T22:38:44.197Z,20.43
2018-10-16T22:41:11.662Z,15.70
2018-10-16T22:43:39.124Z,20.10
2018-10-16T22:46:06.529Z,16.97
2018-10-16T22:48:33.952Z,20.77
2018-10-16T22:51:01.300Z,14.80
2018-10-16T22:53:28.700Z,17.37
2018-10-16T22:55:56.060Z,14.33
2018-10-16T22:58:23.456Z,16.80
2018-10-16T23:00:50.896Z,17.73
2018-10-16T23:03:18.360Z,21.40
2018-10-16T23:05:45.714Z,25.17
2018-10-16T23:08:13.213Z,22.20
2018-10-16T23:10:40.653Z,19.27
2018-10-16T23:13:08.540Z,21.53
2018-10-16T23:15:36.309Z,25.97
2018-10-16T23:18:04.361Z,26.40
2018-10-16T23:20:32.291Z,22.37
2018-10-16T23:22:59.726Z,25.07
2018-10-16T23:25:27.101Z,25.80
2018-10-16T23:27:54.468Z,25.53
2018-10-16T23:30:21.849Z,38.83
2018-10-16T23:32:49.248Z,32.23
2018-10-16T23:35:17.631Z,37.60
2018-10-16T23:37:45.053Z,58.23
2018-10-16T23:40:12.417Z,64.13
2018-10-16T23:42:39.973Z,74.87
2018-10-16T23:45:07.374Z,110.70
2018-10-16T23:47:34.737Z,43.37
2018-10-16T23:50:02.144Z,30.53
2018-10-16T23:52:29.649Z,30.10
2018-10-16T23:54:57.119Z,23.07
2018-10-16T23:57:24.505Z,28.17
2018-10-16T23:59:52.007Z,28.77
